createdAt,value
2023-01-17T00:02:13.437Z,96415.34
2023-01-17T00:04:59.462Z,96415.34
2023-01-17T00:07:46.425Z,96405.31
2023-01-17T00:10:18.297Z,96409.75
2023-01-17T00:12:53.039Z,96420.72
2023-01-17T00:15:23.614Z,96419.94
2023-01-17T00:17:54.615Z,96424.06
2023-01-17T00:20:44.003Z,96433.31
2023-01-17T00:23:35.188Z,96431.69
2023-01-17T00:26:04.287Z,96430.09
2023-01-17T00:28:34.726Z,96425.78
2023-01-17T00:31:03.033Z,96430.88
2023-01-17T00:33:32.261Z,96436.78
2023-01-17T00:36:00.729Z,96442.81
2023-01-17T00:38:30.771Z,96443.59
2023-01-17T00:41:03.491Z,96449.50
2023-01-17T00:43:50.659Z,96461.41
2023-01-17T00:46:37.642Z,96451.22
2023-01-17T00:49:25.211Z,96469.19
2023-01-17T00:52:11.383Z,96470.28
2023-01-17T00:54:57.648Z,96467.13
2023-01-17T00:57:43.826Z,96484.13
2023-01-17T01:00:31.623Z,96494.44
2023-01-17T01:03:17.720Z,96504.59
2023-01-17T01:06:05.289Z,96509.06
2023-01-17T01:08:51.634Z,96510.81
2023-01-17T01:11:39.955Z,96511.75
2023-01-17T01:14:28.554Z,96527.16
2023-01-17T01:17:14.760Z,96522.09
2023-01-17T01:20:08.798Z,96524.75
2023-01-17T01:22:56.487Z,96534.28
2023-01-17T01:25:42.802Z,96531.75
2023-01-17T01:28:32.603Z,96541.25
2023-01-17T01:31:19.260Z,96547.31
2023-01-17T01:33:48.128Z,96551.59
2023-01-17T01:36:17.323Z,96542.22
2023-01-17T01:38:47.337Z,96552.41
2023-01-17T01:41:15.979Z,96548.25
2023-01-17T01:43:48.363Z,96560.97
2023-01-17T01:46:21.745Z,96559.38
2023-01-17T01:48:55.148Z,96564.44
2023-01-17T01:51:27.765Z,96573.03
2023-01-17T01:54:03.265Z,96579.84
2023-01-17T01:56:32.621Z,96576.53
2023-01-17T01:59:04.322Z,96582.41
2023-01-17T02:01:37.559Z,96570.47
2023-01-17T02:04:09.924Z,96572.22
2023-01-17T02:06:43.397Z,96574.63
2023-01-17T02:09:15.561Z,96578.09
2023-01-17T02:11:45.425Z,96575.56
2023-01-17T02:14:17.630Z,96572.38
2023-01-17T02:17:02.571Z,96575.72
2023-01-17T02:20:03.333Z,96574.94
2023-01-17T02:23:32.627Z,96576.81
2023-01-17T02:26:52.164Z,96568.56
2023-01-17T02:30:21.285Z,96566.16
2023-01-17T02:33:08.160Z,96558.69
2023-01-17T02:35:47.585Z,96560.28
2023-01-17T02:38:32.538Z,96567.88
2023-01-17T02:41:07.904Z,96566.16
2023-01-17T02:43:38.569Z,96566.16
2023-01-17T02:46:09.668Z,96575.50
2023-01-17T02:48:40.829Z,96573.78
2023-01-17T02:51:30.079Z,96573.94
2023-01-17T02:54:38.921Z,96571.53
2023-01-17T02:57:50.429Z,96571.69
2023-01-17T03:00:27.907Z,96573.59
2023-01-17T03:03:04.859Z,96576.13
2023-01-17T03:05:42.553Z,96573.59
2023-01-17T03:08:12.845Z,96582.13
2023-01-17T03:10:42.963Z,96583.75
2023-01-17T03:13:11.674Z,96583.75
2023-01-17T03:15:41.390Z,96588.84
2023-01-17T03:18:15.147Z,96597.25
2023-01-17T03:20:45.145Z,96599.78
2023-01-17T03:23:13.854Z,96596.31
2023-01-17T03:25:42.448Z,96599.63
2023-01-17T03:28:12.013Z,96601.41
2023-01-17T03:30:40.724Z,96603.00
2023-01-17T03:33:09.984Z,96597.09
2023-01-17T03:35:38.622Z,96597.91
2023-01-17T03:38:08.574Z,96600.63
2023-01-17T03:40:37.233Z,96610.78
2023-01-17T03:43:05.866Z,96605.78
2023-01-17T03:45:34.667Z,96621.88
2023-01-17T03:48:03.288Z,96602.47
2023-01-17T03:50:31.912Z,96615.16
2023-01-17T03:53:00.560Z,96606.75
2023-01-17T03:55:30.613Z,96618.66
2023-01-17T03:57:59.216Z,96615.47
2023-01-17T04:00:27.858Z,96622.16
2023-01-17T04:02:56.443Z,96618.00
2023-01-17T04:05:25.157Z,96625.63
2023-01-17T04:07:53.750Z,96625.63
2023-01-17T04:10:22.503Z,96630.72
2023-01-17T04:12:52.588Z,96624.03
2023-01-17T04:15:21.396Z,96632.44
2023-01-17T04:17:50.217Z,96633.25
2023-01-17T04:20:30.975Z,96634.19
2023-01-17T04:22:59.602Z,96630.06
2023-01-17T04:25:30.598Z,96625.13
2023-01-17T04:28:02.593Z,96629.41
2023-01-17T04:30:32.141Z,96629.41
2023-01-17T04:33:01.014Z,96629.56
2023-01-17T04:35:31.675Z,96642.28
2023-01-17T04:38:00.348Z,96642.28
2023-01-17T04:40:29.700Z,96650.84
2023-01-17T04:42:59.869Z,96650.03
2023-01-17T04:45:28.549Z,96648.44
2023-01-17T04:47:57.166Z,96652.72
2023-01-17T04:50:25.792Z,96657.78
2023-01-17T04:52:54.467Z,96656.22
2023-01-17T04:55:23.132Z,96654.63
2023-01-17T04:57:51.875Z,96641.91
2023-01-17T05:00:24.252Z,96641.09
2023-01-17T05:02:53.108Z,96637.00
2023-01-17T05:05:21.776Z,96635.38
2023-01-17T05:07:56.745Z,96646.34
2023-01-17T05:10:26.379Z,96648.09
2023-01-17T05:12:56.497Z,96632.19
2023-01-17T05:15:29.343Z,96642.34
2023-01-17T05:17:58.031Z,96639.94
2023-01-17T05:20:28.143Z,96650.94
2023-01-17T05:22:58.075Z,96655.34
2023-01-17T05:25:29.298Z,96659.50
2023-01-17T05:27:59.987Z,96662.97
2023-01-17T05:30:32.676Z,96659.50
2023-01-17T05:33:01.328Z,96659.50
2023-01-17T05:35:32.783Z,96652.81
2023-01-17T05:38:01.520Z,96652.81
2023-01-17T05:40:32.942Z,96646.13
2023-01-17T05:43:03.120Z,96644.41
2023-01-17T05:45:34.683Z,96648.66
2023-01-17T05:48:04.746Z,96651.19
2023-01-17T05:50:36.586Z,96659.78
2023-01-17T05:53:07.989Z,96659.78
2023-01-17T05:55:38.076Z,96653.09
2023-01-17T05:58:07.837Z,96648.03
2023-01-17T06:00:37.965Z,96647.09
2023-01-17T06:03:06.886Z,96642.00
2023-01-17T06:05:35.627Z,96640.41
2023-01-17T06:08:04.499Z,96642.13
2023-01-17T06:10:33.309Z,96633.72
2023-01-17T06:13:04.916Z,96643.88
2023-01-17T06:15:34.089Z,96633.72
2023-01-17T06:18:07.864Z,96623.72
2023-01-17T06:20:36.964Z,96628.78
2023-01-17T06:23:09.676Z,96628.00
2023-01-17T06:25:39.638Z,96629.56
2023-01-17T06:28:08.964Z,96628.00
2023-01-17T06:30:37.753Z,96624.50
2023-01-17T06:33:07.983Z,96628.00
2023-01-17T06:35:37.696Z,96634.66
2023-01-17T06:38:07.105Z,96629.72
2023-01-17T06:40:35.825Z,96626.25
2023-01-17T06:43:05.694Z,96631.19
2023-01-17T06:45:36.576Z,96633.09
2023-01-17T06:48:07.553Z,96641.66
2023-01-17T06:50:36.269Z,96633.34
2023-01-17T06:53:07.430Z,96635.25
2023-01-17T06:55:40.357Z,96637.81
2023-01-17T06:58:11.109Z,96637.94
2023-01-17T07:00:41.068Z,96627.94
2023-01-17T07:03:20.476Z,96638.22
2023-01-17T07:05:49.673Z,96632.34
2023-01-17T07:08:19.414Z,96634.22
2023-01-17T07:10:49.354Z,96634.53
2023-01-17T07:13:21.939Z,96634.69
2023-01-17T07:15:50.590Z,96622.28
2023-01-17T07:18:23.380Z,96628.44
2023-01-17T07:20:52.564Z,96623.38
2023-01-17T07:23:22.753Z,96619.88
2023-01-17T07:25:54.714Z,96623.38
2023-01-17T07:28:24.151Z,96628.44
2023-01-17T07:30:53.242Z,96615.09
2023-01-17T07:33:23.341Z,96614.28
2023-01-17T07:35:51.936Z,96617.78
2023-01-17T07:38:22.659Z,96616.97
2023-01-17T07:40:51.334Z,96616.31
2023-01-17T07:43:20.011Z,96608.22
2023-01-17T07:45:51.723Z,96611.69
2023-01-17T07:48:23.656Z,96609.31
2023-01-17T07:50:57.089Z,96611.16
2023-01-17T07:53:27.228Z,96599.72
2023-01-17T07:55:56.480Z,96601.31
2023-01-17T07:58:25.076Z,96597.31
2023-01-17T08:00:53.802Z,96592.38
2023-01-17T08:03:23.906Z,96586.66
2023-01-17T08:05:57.678Z,96579.19
2023-01-17T08:08:26.739Z,96590.31
2023-01-17T08:10:55.418Z,96590.41
2023-01-17T08:13:24.112Z,96586.94
2023-01-17T08:15:54.488Z,96584.41
2023-01-17T08:18:24.513Z,96586.16
2023-01-17T08:20:53.166Z,96583.47
2023-01-17T08:23:22.080Z,96584.25
2023-01-17T08:25:50.779Z,96588.91
2023-01-17T08:28:19.807Z,96584.47
2023-01-17T08:30:48.471Z,96580.22
2023-01-17T08:33:17.221Z,96575.00
2023-01-17T08:35:54.504Z,96580.69
2023-01-17T08:38:24.570Z,96577.22
2023-01-17T08:40:53.227Z,96582.81
2023-01-17T08:43:21.905Z,96578.38
2023-01-17T08:45:51.604Z,96585.56
2023-01-17T08:48:20.262Z,96588.75
2023-01-17T08:50:49.760Z,96582.44
2023-01-17T08:53:21.732Z,96575.47
2023-01-17T08:55:51.308Z,96583.44
2023-01-17T08:58:19.904Z,96581.56
2023-01-17T09:00:48.621Z,96581.25
2023-01-17T09:03:17.346Z,96578.56
2023-01-17T09:05:46.062Z,96585.09
2023-01-17T09:08:14.695Z,96585.75
2023-01-17T09:10:44.746Z,96590.53
2023-01-17T09:13:13.660Z,96582.75
2023-01-17T09:15:42.307Z,96582.47
2023-01-17T09:18:10.975Z,96576.44
2023-01-17T09:20:39.566Z,96594.06
2023-01-17T09:23:08.198Z,96591.41
2023-01-17T09:25:36.871Z,96594.56
2023-01-17T09:28:07.035Z,96589.34
2023-01-17T09:30:35.683Z,96598.56
2023-01-17T09:33:04.410Z,96595.09
2023-01-17T09:35:33.185Z,96600.03
2023-01-17T09:38:01.884Z,96593.19
2023-01-17T09:40:30.599Z,96595.72
2023-01-17T09:43:04.210Z,96598.09
2023-01-17T09:45:35.716Z,96607.50
2023-01-17T09:48:14.413Z,96616.06
2023-01-17T09:50:49.259Z,96610.19
2023-01-17T09:53:21.483Z,96620.34
2023-01-17T09:56:00.425Z,96623.53
2023-01-17T09:58:41.295Z,96618.44
2023-01-17T10:01:18.359Z,96620.84
2023-01-17T10:04:10.459Z,96622.44
2023-01-17T10:06:55.574Z,96624.03
2023-01-17T10:09:55.739Z,96617.34
2023-01-17T10:12:34.942Z,96608.78
2023-01-17T10:15:40.153Z,96602.91
2023-01-17T10:18:33.201Z,96597.03
2023-01-17T10:21:11.998Z,96590.06
2023-01-17T10:24:17.055Z,96590.06
2023-01-17T10:26:51.361Z,96597.53
2023-01-17T10:29:21.659Z,96601.81
2023-01-17T10:31:56.815Z,96596.47
2023-01-17T10:34:34.435Z,96595.53
2023-01-17T10:37:15.603Z,96594.56
2023-01-17T10:39:48.788Z,96589.47
2023-01-17T10:42:23.423Z,96587.59
2023-01-17T10:44:57.347Z,96584.91
2023-01-17T10:47:28.318Z,96589.03
2023-01-17T10:49:59.556Z,96584.75
2023-01-17T10:52:39.941Z,96587.94
2023-01-17T10:55:26.283Z,96584.59
2023-01-17T10:57:55.753Z,96585.41
2023-01-17T11:00:43.913Z,96586.97
2023-01-17T11:03:14.108Z,96588.59
2023-01-17T11:05:45.236Z,96575.88
2023-01-17T11:08:16.015Z,96563.97
2023-01-17T11:10:47.190Z,96569.06
2023-01-17T11:13:29.536Z,96563.97
2023-01-17T11:16:02.351Z,96562.38
2023-01-17T11:18:33.791Z,96572.53
2023-01-17T11:21:15.513Z,96567.63
2023-01-17T11:23:46.919Z,96567.88
2023-01-17T11:26:26.585Z,96552.00
2023-01-17T11:29:16.258Z,96550.41
2023-01-17T11:31:44.893Z,96545.47
2023-01-17T11:34:18.960Z,96542.00
2023-01-17T11:36:50.045Z,96534.38
2023-01-17T11:39:29.734Z,96531.00
2023-01-17T11:41:58.631Z,96528.47
2023-01-17T11:44:30.506Z,96522.59
2023-01-17T11:47:19.198Z,96521.81
2023-01-17T11:49:50.036Z,96521.81
2023-01-17T11:52:27.307Z,96515.91
2023-01-17T11:54:57.476Z,96511.66
2023-01-17T11:57:29.186Z,96511.66
2023-01-17T12:00:12.945Z,96509.13
2023-01-17T12:03:13.973Z,96502.28
2023-01-17T12:05:56.846Z,96500.69
2023-01-17T12:08:51.357Z,96492.91
2023-01-17T12:11:27.541Z,96485.13
2023-01-17T12:14:07.374Z,96484.16
2023-01-17T12:16:57.770Z,96480.53
2023-01-17T12:19:45.619Z,96478.66
2023-01-17T12:22:33.780Z,96475.13
2023-01-17T12:25:29.869Z,96463.41
2023-01-17T12:28:17.773Z,96464.97
2023-01-17T12:31:11.776Z,96463.41
2023-01-17T12:33:48.502Z,96462.59
2023-01-17T12:36:36.895Z,96459.25
2023-01-17T12:39:10.211Z,96447.50
2023-01-17T12:42:01.282Z,96453.22
2023-01-17T12:44:46.771Z,96442.09
2023-01-17T12:47:17.408Z,96446.22
2023-01-17T12:49:53.575Z,96433.38
2023-01-17T12:52:36.257Z,96432.59
2023-01-17T12:55:10.856Z,96429.09
2023-01-17T12:57:46.607Z,96428.00
2023-01-17T13:00:19.946Z,96417.81
2023-01-17T13:02:55.424Z,96414.31
2023-01-17T13:05:29.130Z,96416.69
2023-01-17T13:08:05.886Z,96420.22
2023-01-17T13:10:40.641Z,96417.66
2023-01-17T13:13:31.489Z,96423.69
2023-01-17T13:16:28.555Z,96422.91
2023-01-17T13:19:21.794Z,96415.56
2023-01-17T13:22:17.494Z,96417.50
2023-01-17T13:25:17.328Z,96413.50
2023-01-17T13:28:16.190Z,96405.06
2023-01-17T13:31:28.298Z,96398.41
2023-01-17T13:35:15.029Z,96393.78
2023-01-17T13:38:36.089Z,96386.31
2023-01-17T13:41:50.154Z,96380.44
2023-01-17T13:44:38.146Z,96364.50
2023-01-17T13:47:42.554Z,96369.75
2023-01-17T13:50:50.429Z,96374.06
2023-01-17T13:53:59.489Z,96367.38
2023-01-17T13:56:46.603Z,96355.75
2023-01-17T13:59:34.298Z,96354.97
2023-01-17T14:02:39.616Z,96373.72
2023-01-17T14:05:49.311Z,96363.88
2023-01-17T14:08:39.622Z,96363.19
2023-01-17T14:11:27.961Z,96364.97
2023-01-17T14:14:48.432Z,96363.19
2023-01-17T14:17:59.401Z,96370.97
2023-01-17T14:21:11.732Z,96373.53
2023-01-17T14:24:04.984Z,96369.22
2023-01-17T14:26:58.999Z,96381.00
2023-01-17T14:29:55.958Z,96381.94
2023-01-17T14:33:08.812Z,96371.94
2023-01-17T14:35:59.022Z,96380.38
2023-01-17T14:38:46.242Z,96389.72
2023-01-17T14:41:33.582Z,96395.44
2023-01-17T14:44:20.957Z,96387.97
2023-01-17T14:47:13.288Z,96377.81
2023-01-17T14:50:31.134Z,96383.84
2023-01-17T14:53:21.798Z,96377.97
2023-01-17T14:56:17.127Z,96380.53
2023-01-17T14:59:17.117Z,96381.31
2023-01-17T15:02:09.530Z,96390.53
2023-01-17T15:04:57.189Z,96395.59
2023-01-17T15:07:49.606Z,96393.06
2023-01-17T15:10:37.231Z,96402.41
2023-01-17T15:13:43.480Z,96414.97
2023-01-17T15:16:34.436Z,96415.13
2023-01-17T15:19:23.114Z,96412.56
2023-01-17T15:22:10.584Z,96411.00
2023-01-17T15:25:00.209Z,96413.69
2023-01-17T15:27:47.233Z,96410.19
2023-01-17T15:30:34.789Z,96410.19
2023-01-17T15:33:22.106Z,96399.25
2023-01-17T15:36:17.742Z,96414.50
2023-01-17T15:39:16.251Z,96410.34
2023-01-17T15:42:17.294Z,96418.13
2023-01-17T15:45:11.958Z,96413.06
2023-01-17T15:48:00.213Z,96412.41
2023-01-17T15:50:47.693Z,96410.81
2023-01-17T15:53:39.093Z,96407.63
2023-01-17T15:56:32.647Z,96408.41
2023-01-17T15:59:39.877Z,96404.44
2023-01-17T16:02:37.432Z,96399.50
2023-01-17T16:05:43.604Z,96398.09
2023-01-17T16:08:38.792Z,96397.44
2023-01-17T16:11:26.067Z,96398.38
2023-01-17T16:14:12.983Z,96398.38
2023-01-17T16:17:02.995Z,96395.19
2023-01-17T16:19:50.043Z,96389.31
2023-01-17T16:22:37.149Z,96389.47
2023-01-17T16:25:25.884Z,96381.06
2023-01-17T16:28:13.375Z,96391.22
2023-01-17T16:31:00.685Z,96387.25
2023-01-17T16:33:51.716Z,96393.25
2023-01-17T16:36:38.861Z,96390.72
2023-01-17T16:39:26.011Z,96395.78
2023-01-17T16:42:13.746Z,96391.81
2023-01-17T16:45:01.166Z,96385.94
2023-01-17T16:47:49.722Z,96391.19
2023-01-17T16:50:47.999Z,96390.53
2023-01-17T16:53:36.674Z,96395.75
2023-01-17T16:56:23.885Z,96404.47
2023-01-17T16:59:11.628Z,96407.97
2023-01-17T17:02:01.457Z,96398.59
2023-01-17T17:04:48.511Z,96402.25
2023-01-17T17:07:42.759Z,96400.63
2023-01-17T17:10:31.413Z,96406.03
2023-01-17T17:13:18.778Z,96402.72
2023-01-17T17:16:15.872Z,96400.44
2023-01-17T17:19:06.583Z,96404.56
2023-01-17T17:21:55.083Z,96403.94
2023-01-17T17:24:43.695Z,96400.59
2023-01-17T17:27:31.030Z,96409.97
2023-01-17T17:30:18.646Z,96410.75
2023-01-17T17:33:06.066Z,96398.88
2023-01-17T17:35:53.240Z,96398.22
2023-01-17T17:38:50.749Z,96397.59
2023-01-17T17:41:44.581Z,96402.00
2023-01-17T17:44:31.670Z,96406.28
2023-01-17T17:47:18.714Z,96404.53
2023-01-17T17:50:06.523Z,96402.31
2023-01-17T17:52:53.589Z,96410.06
2023-01-17T17:55:41.221Z,96413.56
2023-01-17T17:58:30.631Z,96413.56
2023-01-17T18:01:18.016Z,96415.28
2023-01-17T18:04:07.511Z,96420.34
2023-01-17T18:06:58.309Z,96427.19
2023-01-17T18:09:45.609Z,96433.03
2023-01-17T18:12:32.684Z,96433.03
2023-01-17T18:15:21.531Z,96433.84
2023-01-17T18:18:08.950Z,96440.53
2023-01-17T18:20:55.985Z,96444.78
2023-01-17T18:23:45.590Z,96440.53
2023-01-17T18:26:35.649Z,96442.25
2023-01-17T18:29:23.904Z,96440.53
2023-01-17T18:32:13.212Z,96438.00
2023-01-17T18:35:00.468Z,96438.78
2023-01-17T18:37:47.470Z,96439.72
2023-01-17T18:40:35.749Z,96448.28
2023-01-17T18:43:23.118Z,96446.69
2023-01-17T18:46:12.070Z,96450.97
2023-01-17T18:49:00.901Z,96451.78
2023-01-17T18:51:50.777Z,96455.25
2023-01-17T18:54:38.647Z,96461.13
2023-01-17T18:57:25.916Z,96454.47
2023-01-17T19:00:14.989Z,96448.56
2023-01-17T19:03:02.295Z,96455.41
2023-01-17T19:05:50.724Z,96448.72
2023-01-17T19:08:38.643Z,96450.47
2023-01-17T19:11:26.487Z,96460.63
2023-01-17T19:14:14.541Z,96464.09
2023-01-17T19:17:01.793Z,96473.47
2023-01-17T19:19:50.013Z,96473.59
2023-01-17T19:22:39.578Z,96488.81
2023-01-17T19:25:26.721Z,96486.28
2023-01-17T19:28:13.965Z,96488.72
2023-01-17T19:31:06.392Z,96495.50
2023-01-17T19:33:57.382Z,96502.34
2023-01-17T19:36:44.729Z,96504.72
2023-01-17T19:39:33.952Z,96498.03
2023-01-17T19:42:20.927Z,96507.41
2023-01-17T19:45:09.843Z,96501.50
2023-01-17T19:47:57.180Z,96502.47
2023-01-17T19:50:44.787Z,96510.09
2023-01-17T19:53:31.832Z,96493.25
2023-01-17T19:56:23.826Z,96502.47
2023-01-17T19:59:13.800Z,96497.53
2023-01-17T20:02:01.396Z,96495.94
2023-01-17T20:04:48.616Z,96496.88
2023-01-17T20:07:35.887Z,96496.09
2023-01-17T20:10:25.207Z,96492.91
2023-01-17T20:13:13.526Z,96492.13
2023-01-17T20:16:04.207Z,96497.34
2023-01-17T20:18:51.735Z,96487.19
2023-01-17T20:21:39.284Z,96484.66
2023-01-17T20:24:26.526Z,96491.28
2023-01-17T20:27:13.469Z,96491.28
2023-01-17T20:30:18.573Z,96494.66
2023-01-17T20:33:06.380Z,96493.84
2023-01-17T20:36:08.796Z,96493.69
2023-01-17T20:38:58.334Z,96489.56
2023-01-17T20:41:46.298Z,96507.34
2023-01-17T20:44:34.433Z,96500.50
2023-01-17T20:47:24.381Z,96496.22
2023-01-17T20:50:12.413Z,96514.00
2023-01-17T20:52:59.698Z,96512.28
2023-01-17T20:55:48.504Z,96509.72
2023-01-17T20:58:36.036Z,96512.28
2023-01-17T21:01:24.257Z,96515.44
2023-01-17T21:04:14.787Z,96518.94
2023-01-17T21:07:01.979Z,96524.81
2023-01-17T21:09:49.122Z,96515.44
2023-01-17T21:12:36.320Z,96515.44
2023-01-17T21:15:23.744Z,96519.59
2023-01-17T21:18:11.237Z,96515.44
2023-01-17T21:21:04.143Z,96517.19
2023-01-17T21:23:53.434Z,96518.94
2023-01-17T21:26:43.035Z,96518.94
2023-01-17T21:29:32.098Z,96520.53
2023-01-17T21:32:20.066Z,96522.25
2023-01-17T21:35:08.627Z,96514.81
2023-01-17T21:37:57.925Z,96514.81
2023-01-17T21:40:45.913Z,96521.59
2023-01-17T21:43:33.313Z,96514.81
2023-01-17T21:46:20.787Z,96523.06
2023-01-17T21:49:10.742Z,96525.59
2023-01-17T21:52:15.254Z,96521.34
2023-01-17T21:55:21.024Z,96525.59
2023-01-17T21:58:31.844Z,96533.19
2023-01-17T22:01:22.234Z,96534.16
2023-01-17T22:04:11.788Z,96531.63
2023-01-17T22:06:58.830Z,96532.56
2023-01-17T22:09:45.985Z,96526.69
2023-01-17T22:12:34.486Z,96531.75
2023-01-17T22:15:22.046Z,96532.56
2023-01-17T22:18:09.754Z,96531.75
2023-01-17T22:20:57.272Z,96536.81
2023-01-17T22:23:47.627Z,96531.75
2023-01-17T22:26:35.143Z,96540.19
2023-01-17T22:29:23.578Z,96535.25
2023-01-17T22:32:10.840Z,96526.81
2023-01-17T22:34:58.212Z,96531.91
2023-01-17T22:37:45.354Z,96533.81
2023-01-17T22:40:36.265Z,96537.94
2023-01-17T22:43:23.175Z,96532.19
2023-01-17T22:46:14.283Z,96534.75
2023-01-17T22:49:01.766Z,96526.97
2023-01-17T22:51:48.949Z,96523.66
2023-01-17T22:54:35.932Z,96516.81
2023-01-17T22:57:23.173Z,96519.50
2023-01-17T23:00:14.618Z,96521.13
2023-01-17T23:03:04.142Z,96522.06
2023-01-17T23:05:51.733Z,96513.66
2023-01-17T23:08:39.603Z,96512.84
2023-01-17T23:11:45.036Z,96519.50
2023-01-17T23:14:49.028Z,96511.75
2023-01-17T23:17:53.958Z,96514.44
2023-01-17T23:20:42.381Z,96509.50
2023-01-17T23:23:29.591Z,96514.44
2023-01-17T23:26:17.020Z,96509.38
2023-01-17T23:29:03.608Z,96507.75
2023-01-17T23:31:50.789Z,96507.75
2023-01-17T23:34:37.929Z,96502.69
2023-01-17T23:37:48.257Z,96504.59
2023-01-17T23:40:37.365Z,96508.06
2023-01-17T23:43:23.732Z,96508.06
2023-01-17T23:46:13.917Z,96506.47
2023-01-17T23:49:00.931Z,96501.53
2023-01-17T23:51:50.430Z,96501.53
2023-01-17T23:54:39.822Z,96505.81
2023-01-17T23:57:27.434Z,96501.00
